Time;durP1;ratioP1;P1;durP2;ratioP2;P2;SDS_P1;SDS_P2;PMS_P1;PMS_P2;Temp;Humidity;BMP_temperature;BMP_pressure;BME280_temperature;BME280_humidity;BME280_pressure;Samples;Min_cycle;Max_cycle;Signal;HPM_P1;HPM_P2
2021/06/03 00:01:00;;;;;;;4.67;4.27;;;15.90;99.90;;;;;;5088426;28;20457;-72
2021/06/03 00:03:27;;;;;;;5.47;4.40;;;15.90;99.90;;;;;;5088314;28;20489;-72
2021/06/03 00:05:55;;;;;;;4.23;3.87;;;16.00;99.90;;;;;;5088445;28;20937;-72
2021/06/03 00:08:24;;;;;;;4.30;3.90;;;16.00;99.90;;;;;;5087799;28;20465;-72
2021/06/03 00:10:53;;;;;;;5.47;4.60;;;15.90;99.90;;;;;;5088343;28;21007;-71
2021/06/03 00:13:22;;;;;;;4.63;4.23;;;15.80;99.90;;;;;;5088066;28;20458;-71
2021/06/03 00:15:49;;;;;;;4.77;4.37;;;15.80;99.90;;;;;;5090010;28;20840;-71
2021/06/03 00:18:17;;;;;;;4.60;4.20;;;15.80;99.90;;;;;;5090141;28;20957;-71
2021/06/03 00:20:43;;;;;;;5.57;4.07;;;15.80;99.90;;;;;;5090207;28;20465;-71
2021/06/03 00:23:10;;;;;;;4.23;3.83;;;15.80;99.90;;;;;;5090771;28;20481;-71
2021/06/03 00:25:37;;;;;;;4.00;3.70;;;15.80;99.90;;;;;;5091009;28;20468;-71
2021/06/03 00:28:04;;;;;;;4.37;3.83;;;15.70;99.90;;;;;;5090623;28;20826;-71
2021/06/03 00:30:31;;;;;;;4.93;4.53;;;15.70;99.90;;;;;;5091002;28;20859;-71
2021/06/03 00:32:57;;;;;;;4.73;4.33;;;15.60;99.90;;;;;;5090894;28;20836;-71
2021/06/03 00:35:25;;;;;;;4.80;4.40;;;15.60;99.90;;;;;;5089966;28;20486;-71
2021/06/03 00:37:51;;;;;;;4.60;4.20;;;15.50;99.90;;;;;;5090441;28;20502;-71
2021/06/03 00:40:19;;;;;;;5.57;4.80;;;15.50;99.90;;;;;;5090416;28;20457;-71
2021/06/03 00:42:45;;;;;;;5.63;4.10;;;15.30;99.90;;;;;;5090792;28;20512;-71
2021/06/03 00:45:14;;;;;;;5.03;4.53;;;15.30;99.90;;;;;;5090582;28;20907;-71
2021/06/03 00:47:41;;;;;;;4.10;3.80;;;15.30;99.90;;;;;;5090500;28;20462;-71
2021/06/03 00:50:12;;;;;;;4.97;4.47;;;15.30;99.90;;;;;;5090662;28;20465;-71
2021/06/03 00:52:40;;;;;;;5.13;4.17;;;15.20;99.90;;;;;;5090957;28;20491;-71
2021/06/03 00:55:08;;;;;;;4.40;3.93;;;15.30;99.90;;;;;;5090334;28;20478;-71
2021/06/03 00:57:34;;;;;;;4.47;4.17;;;15.30;99.90;;;;;;5090742;28;20514;-71
2021/06/03 01:00:00;;;;;;;4.57;4.17;;;15.30;99.90;;;;;;5090339;28;20465;-71
2021/06/03 01:02:27;;;;;;;4.40;4.00;;;15.20;99.90;;;;;;5090408;28;20496;-71
2021/06/03 01:04:53;;;;;;;4.83;4.33;;;15.10;99.90;;;;;;5090358;28;20875;-71
2021/06/03 01:07:19;;;;;;;5.33;4.77;;;15.10;99.90;;;;;;5090396;28;20461;-71
2021/06/03 01:09:57;;;;;;;6.43;3.83;;;15.00;99.90;;;;;;5090360;28;20825;-71
2021/06/03 01:12:31;;;;;;;5.33;4.20;;;14.90;99.90;;;;;;5090308;28;20528;-71
2021/06/03 01:15:03;;;;;;;5.10;4.53;;;14.90;99.90;;;;;;5090431;28;20495;-71
2021/06/03 01:17:29;;;;;;;5.00;4.60;;;14.90;99.90;;;;;;5090426;28;20477;-71
2021/06/03 01:19:56;;;;;;;4.70;4.30;;;14.90;99.90;;;;;;5090214;28;20501;-72
2021/06/03 01:22:33;;;;;;;4.90;4.40;;;14.80;99.90;;;;;;5090092;28;20484;-71
2021/06/03 01:25:01;;;;;;;4.40;4.00;;;14.70;99.90;;;;;;5090374;28;21199;-71
2021/06/03 01:27:32;;;;;;;4.87;4.47;;;14.80;99.90;;;;;;5090383;28;20881;-71
2021/06/03 01:30:04;;;;;;;4.60;4.20;;;14.70;99.90;;;;;;5090026;28;20464;-71
2021/06/03 01:32:31;;;;;;;4.40;4.00;;;14.70;99.90;;;;;;5090495;28;20468;-71
2021/06/03 01:34:58;;;;;;;4.47;4.00;;;14.70;99.90;;;;;;5090102;28;20486;-71
2021/06/03 01:37:25;;;;;;;4.63;4.23;;;14.60;99.90;;;;;;5090024;28;20454;-71
2021/06/03 01:39:51;;;;;;;4.43;4.03;;;14.60;99.90;;;;;;5089987;28;20458;-71
2021/06/03 01:42:20;;;;;;;4.70;4.30;;;14.50;99.90;;;;;;5090106;28;21012;-71
2021/06/03 01:44:48;;;;;;;4.97;4.57;;;14.40;99.90;;;;;;5090278;28;20481;-71
2021/06/03 01:47:15;;;;;;;4.97;4.47;;;14.40;99.90;;;;;;5091121;28;20533;-71
2021/06/03 01:49:42;;;;;;;4.57;4.17;;;14.30;99.90;;;;;;5093728;28;20461;-71
2021/06/03 01:52:09;;;;;;;4.20;3.87;;;14.40;99.90;;;;;;5093687;28;20450;-71
2021/06/03 01:54:36;;;;;;;5.53;5.10;;;14.30;99.90;;;;;;5094077;28;20485;-71
2021/06/03 01:57:04;;;;;;;4.93;4.40;;;14.30;99.90;;;;;;5093863;28;20468;-71
2021/06/03 01:59:34;;;;;;;4.67;4.27;;;14.30;99.90;;;;;;5093459;28;20461;-71
2021/06/03 02:02:01;;;;;;;5.53;3.93;;;14.20;99.90;;;;;;5093859;28;20511;-71
2021/06/03 02:04:27;;;;;;;5.37;4.87;;;14.20;99.90;;;;;;5093435;28;20485;-71
2021/06/03 02:06:53;;;;;;;4.53;4.13;;;14.30;99.90;;;;;;5093733;28;20477;-71
2021/06/03 02:09:19;;;;;;;5.63;5.13;;;14.20;99.90;;;;;;5093323;28;20465;-71
2021/06/03 02:11:47;;;;;;;4.20;3.80;;;14.30;99.90;;;;;;5093744;28;20466;-71
2021/06/03 02:14:16;;;;;;;4.87;4.40;;;14.30;99.90;;;;;;5093390;28;20487;-71
2021/06/03 02:16:47;;;;;;;4.80;4.40;;;14.30;99.90;;;;;;5093369;28;20464;-71
2021/06/03 02:19:16;;;;;;;4.63;4.23;;;14.30;99.90;;;;;;5093113;28;20462;-71
2021/06/03 02:21:45;;;;;;;5.30;4.63;;;14.30;99.90;;;;;;5093260;28;20464;-71
2021/06/03 02:24:12;;;;;;;4.90;4.40;;;14.40;99.90;;;;;;5093067;28;20497;-70
2021/06/03 02:26:41;;;;;;;5.10;4.40;;;14.40;99.90;;;;;;5093380;28;20461;-71
2021/06/03 02:29:08;;;;;;;5.20;4.30;;;14.40;99.90;;;;;;5092756;28;20462;-71
2021/06/03 02:31:36;;;;;;;4.53;4.13;;;14.40;99.90;;;;;;5093303;28;20462;-71
2021/06/03 02:34:04;;;;;;;4.93;4.20;;;14.40;99.90;;;;;;5092665;28;20532;-71
2021/06/03 02:36:31;;;;;;;4.40;4.03;;;14.40;99.90;;;;;;5093131;28;20466;-71
2021/06/03 02:38:57;;;;;;;4.37;3.97;;;14.40;99.90;;;;;;5092720;28;20458;-71
2021/06/03 02:41:24;;;;;;;4.87;4.20;;;14.50;99.90;;;;;;5093076;28;20468;-71
2021/06/03 02:43:50;;;;;;;4.37;3.97;;;14.50;99.90;;;;;;5092899;28;20524;-71
2021/06/03 02:46:20;;;;;;;4.70;4.30;;;14.50;99.90;;;;;;5092624;28;20466;-71
2021/06/03 02:48:46;;;;;;;4.97;4.10;;;14.50;99.90;;;;;;5092594;28;20476;-71
2021/06/03 02:51:15;;;;;;;4.97;4.07;;;14.60;99.90;;;;;;5092499;28;20457;-71
2021/06/03 02:53:43;;;;;;;4.97;4.47;;;14.60;99.90;;;;;;5092769;28;20484;-71
2021/06/03 02:56:10;;;;;;;4.77;4.10;;;14.60;99.90;;;;;;5092573;28;21062;-71
2021/06/03 02:58:36;;;;;;;5.10;4.60;;;14.60;99.90;;;;;;5091978;28;20889;-71
2021/06/03 03:01:03;;;;;;;4.77;4.37;;;14.60;99.90;;;;;;5092622;28;20461;-71
2021/06/03 03:03:29;;;;;;;4.90;4.50;;;14.60;99.90;;;;;;5091922;28;20884;-71
2021/06/03 03:05:55;;;;;;;4.97;4.57;;;14.70;99.90;;;;;;5092371;28;20458;-71
2021/06/03 03:08:23;;;;;;;4.33;3.93;;;14.70;99.90;;;;;;5091712;28;20461;-71
2021/06/03 03:10:51;;;;;;;5.63;5.13;;;14.70;99.90;;;;;;5093503;28;20469;-71
2021/06/03 03:13:17;;;;;;;5.17;4.67;;;14.70;99.90;;;;;;5092231;28;20465;-71
2021/06/03 03:15:44;;;;;;;4.60;4.27;;;14.70;99.90;;;;;;5092373;28;20462;-71
2021/06/03 03:18:10;;;;;;;4.70;4.30;;;14.80;99.90;;;;;;5091877;28;20458;-71
2021/06/03 03:20:37;;;;;;;5.23;4.77;;;14.80;99.90;;;;;;5092316;28;20961;-71
2021/06/03 03:23:05;;;;;;;4.10;3.70;;;14.90;99.90;;;;;;5091973;28;20531;-71
2021/06/03 03:25:34;;;;;;;5.17;4.77;;;14.90;99.90;;;;;;5092293;28;20461;-71
2021/06/03 03:28:01;;;;;;;4.83;4.43;;;15.00;99.90;;;;;;5091656;28;20458;-71
2021/06/03 03:30:30;;;;;;;4.90;4.50;;;15.00;99.90;;;;;;5091825;28;20965;-71
2021/06/03 03:32:57;;;;;;;5.40;5.00;;;15.00;99.90;;;;;;5092123;28;20450;-71
2021/06/03 03:35:23;;;;;;;4.60;4.20;;;15.00;99.90;;;;;;5091618;28;20500;-71
2021/06/03 03:37:50;;;;;;;4.40;4.00;;;15.00;99.90;;;;;;5091432;28;20469;-71
2021/06/03 03:40:18;;;;;;;4.70;4.20;;;15.10;99.90;;;;;;5091731;28;20469;-71
2021/06/03 03:42:46;;;;;;;4.50;4.10;;;15.10;99.90;;;;;;5092388;28;20489;-71
2021/06/03 03:45:17;;;;;;;5.43;4.33;;;15.10;99.90;;;;;;5090854;28;20485;-71
2021/06/03 03:47:43;;;;;;;4.70;4.30;;;15.20;99.90;;;;;;5090909;28;20466;-71
2021/06/03 03:50:12;;;;;;;4.87;4.20;;;15.20;99.90;;;;;;5090515;28;20458;-71
2021/06/03 03:52:39;;;;;;;5.60;4.37;;;15.20;99.90;;;;;;5090956;28;20464;-71
2021/06/03 03:55:07;;;;;;;4.80;4.40;;;15.20;99.90;;;;;;5090614;28;20837;-71
2021/06/03 03:57:34;;;;;;;4.57;4.17;;;15.30;99.90;;;;;;5090783;28;20464;-72
2021/06/03 04:00:01;;;;;;;4.20;3.90;;;15.30;99.90;;;;;;5091209;28;20840;-71
2021/06/03 04:02:27;;;;;;;4.33;4.00;;;15.30;99.90;;;;;;5091416;28;21366;-71
2021/06/03 04:04:53;;;;;;;5.00;4.60;;;15.30;99.90;;;;;;5091317;28;20486;-71
2021/06/03 04:07:20;;;;;;;5.70;5.10;;;15.30;99.90;;;;;;5091191;28;20523;-71
2021/06/03 04:09:46;;;;;;;5.57;4.70;;;15.30;99.90;;;;;;5091008;28;20465;-71
2021/06/03 04:12:12;;;;;;;6.27;5.77;;;15.40;99.90;;;;;;5090488;28;20469;-71
2021/06/03 04:14:38;;;;;;;5.87;5.27;;;15.40;99.90;;;;;;5091554;28;20482;-71
2021/06/03 04:17:06;;;;;;;5.30;4.73;;;15.40;99.90;;;;;;5091303;28;20832;-71
2021/06/03 04:19:32;;;;;;;5.50;4.57;;;15.40;99.90;;;;;;5090925;28;20464;-71
2021/06/03 04:21:58;;;;;;;4.20;3.90;;;15.50;99.90;;;;;;5091139;28;20461;-71
2021/06/03 04:24:25;;;;;;;4.07;3.77;;;15.50;99.90;;;;;;5090896;28;20488;-71
2021/06/03 04:26:51;;;;;;;4.37;3.97;;;15.60;99.90;;;;;;5091270;28;20466;-71
2021/06/03 04:29:17;;;;;;;5.50;4.90;;;15.60;99.90;;;;;;5090618;28;20833;-71
2021/06/03 04:31:44;;;;;;;6.67;4.57;;;15.60;99.90;;;;;;5091064;28;20511;-71
2021/06/03 04:34:11;;;;;;;4.40;4.00;;;15.70;99.90;;;;;;5090281;28;21039;-72
2021/06/03 04:36:38;;;;;;;4.77;4.37;;;15.70;99.90;;;;;;5089749;28;20464;-71
2021/06/03 04:39:04;;;;;;;4.60;4.20;;;15.70;99.90;;;;;;5089458;28;20466;-72
2021/06/03 04:41:30;;;;;;;4.90;4.50;;;15.80;99.90;;;;;;5091053;28;20457;-72
2021/06/03 04:43:57;;;;;;;5.10;4.60;;;15.80;99.90;;;;;;5090718;28;20485;-71
2021/06/03 04:46:23;;;;;;;4.70;4.30;;;15.90;99.90;;;;;;5090787;28;20450;-72
2021/06/03 04:48:49;;;;;;;4.00;3.70;;;15.90;99.90;;;;;;5090371;28;20469;-71
2021/06/03 04:51:17;;;;;;;4.90;4.50;;;15.90;99.90;;;;;;5090754;28;20457;-72
2021/06/03 04:53:43;;;;;;;4.30;3.90;;;15.90;99.90;;;;;;5090693;28;20473;-71
2021/06/03 04:56:10;;;;;;;4.27;3.93;;;16.00;99.90;;;;;;5090649;28;20837;-72
2021/06/03 04:58:36;;;;;;;5.00;4.60;;;16.10;99.90;;;;;;5090311;28;20457;-72
2021/06/03 05:01:02;;;;;;;5.10;4.70;;;16.10;99.90;;;;;;5090625;28;20466;-72
2021/06/03 05:03:28;;;;;;;5.47;4.97;;;16.10;99.90;;;;;;5090461;28;20504;-71
2021/06/03 05:05:55;;;;;;;6.03;4.67;;;16.20;99.90;;;;;;5090558;28;20472;-71
2021/06/03 05:08:22;;;;;;;4.90;4.50;;;16.20;99.90;;;;;;5090149;28;20465;-72
2021/06/03 05:10:48;;;;;;;5.20;4.80;;;16.30;99.90;;;;;;5090634;28;20487;-72
2021/06/03 05:13:15;;;;;;;4.30;3.90;;;16.30;99.90;;;;;;5090321;28;20464;-72
2021/06/03 05:15:41;;;;;;;4.60;4.13;;;16.40;99.90;;;;;;5090629;28;20457;-72
2021/06/03 05:18:07;;;;;;;5.17;3.80;;;16.50;99.90;;;;;;5089425;28;20462;-72
2021/06/03 05:20:33;;;;;;;4.00;3.70;;;16.60;99.90;;;;;;5090675;28;20938;-72
2021/06/03 05:23:00;;;;;;;4.20;3.77;;;16.80;99.90;;;;;;5092946;28;20996;-72
2021/06/03 05:25:30;;;;;;;5.70;4.40;;;16.90;99.90;;;;;;5093598;28;20489;-72
2021/06/03 05:27:56;;;;;;;4.40;4.00;;;17.00;99.90;;;;;;5092877;28;20519;-72
2021/06/03 05:30:23;;;;;;;4.20;3.80;;;17.10;99.90;;;;;;5094681;28;20473;-72
2021/06/03 05:32:50;;;;;;;4.20;3.80;;;17.10;99.90;;;;;;5094555;28;20960;-72
2021/06/03 05:35:18;;;;;;;4.30;3.90;;;17.30;99.90;;;;;;5093921;28;20546;-71
2021/06/03 05:37:46;;;;;;;4.30;3.90;;;17.40;99.90;;;;;;5093694;28;20958;-71
2021/06/03 05:40:15;;;;;;;4.10;3.80;;;17.50;99.90;;;;;;5094157;28;20207;-71
2021/06/03 05:42:43;;;;;;;3.80;3.50;;;17.60;99.90;;;;;;5094365;28;20481;-70
2021/06/03 05:45:11;;;;;;;3.20;3.00;;;17.70;99.90;;;;;;5094254;28;20551;-70
2021/06/03 05:47:38;;;;;;;4.33;3.37;;;17.70;99.90;;;;;;5093982;28;20468;-70
2021/06/03 05:50:06;;;;;;;4.60;4.20;;;17.70;99.90;;;;;;5093908;28;20457;-70
2021/06/03 05:52:32;;;;;;;3.57;3.23;;;17.70;99.90;;;;;;5093993;28;20515;-70
2021/06/03 05:54:59;;;;;;;4.67;4.20;;;17.80;99.90;;;;;;5093878;28;20893;-71
2021/06/03 05:57:25;;;;;;;4.10;3.70;;;17.70;99.90;;;;;;5093593;28;20484;-71
2021/06/03 05:59:53;;;;;;;4.17;3.77;;;17.80;99.90;;;;;;5093559;28;20482;-71
2021/06/03 06:02:24;;;;;;;3.70;3.40;;;17.70;99.90;;;;;;5093437;28;20488;-71
2021/06/03 06:07:37;;;;;;;4.53;3.57;;;17.80;99.90;;;;;;5093892;28;20441;-70
2021/06/03 06:10:04;;;;;;;4.03;3.57;;;17.80;99.90;;;;;;5093488;28;20457;-71
2021/06/03 06:12:30;;;;;;;3.70;3.40;;;17.80;99.90;;;;;;5093440;28;20973;-70
2021/06/03 06:14:58;;;;;;;3.70;3.40;;;17.80;99.90;;;;;;5093386;28;20482;-70
2021/06/03 06:17:24;;;;;;;3.90;3.30;;;17.80;99.90;;;;;;5093055;28;20873;-70
2021/06/03 06:20:13;;;;;;;3.90;3.60;;;17.90;99.90;;;;;;5093127;28;20461;-71
2021/06/03 06:22:39;;;;;;;4.50;3.93;;;17.90;99.90;;;;;;5092975;28;20535;-71
2021/06/03 06:25:06;;;;;;;3.10;2.80;;;18.00;99.90;;;;;;5093358;28;20482;-71
2021/06/03 06:27:33;;;;;;;3.60;3.30;;;18.10;99.90;;;;;;5092859;28;20855;-70
2021/06/03 06:30:01;;;;;;;3.70;3.40;;;18.10;99.90;;;;;;5093155;28;20454;-70
2021/06/03 06:32:28;;;;;;;3.67;3.10;;;18.20;99.90;;;;;;5093165;28;20507;-71
2021/06/03 06:34:54;;;;;;;3.73;3.40;;;18.20;99.90;;;;;;5091938;28;21048;-71
2021/06/03 06:37:21;;;;;;;3.90;3.60;;;18.30;99.90;;;;;;5093103;28;20458;-69
2021/06/03 06:39:47;;;;;;;4.20;3.80;;;18.30;99.90;;;;;;5092705;28;20535;-71
2021/06/03 06:42:13;;;;;;;3.90;3.60;;;18.40;99.90;;;;;;5092935;28;20465;-71
2021/06/03 06:44:39;;;;;;;3.57;3.27;;;18.40;99.90;;;;;;5092580;28;20481;-70
2021/06/03 06:47:07;;;;;;;3.30;2.97;;;18.50;99.90;;;;;;5092870;28;20461;-70
2021/06/03 06:49:33;;;;;;;3.80;3.50;;;18.50;99.90;;;;;;5092214;28;20458;-70
2021/06/03 06:51:59;;;;;;;3.50;3.17;;;18.60;99.90;;;;;;5091715;28;20465;-71
2021/06/03 06:54:26;;;;;;;6.17;3.20;;;18.70;99.90;;;;;;5092406;28;20478;-70
2021/06/03 06:56:52;;;;;;;3.63;3.33;;;18.80;99.90;;;;;;5094317;28;20855;-72
2021/06/03 06:59:19;;;;;;;4.13;3.73;;;18.90;99.90;;;;;;5092845;28;20960;-70
2021/06/03 07:01:46;;;;;;;4.40;3.83;;;19.00;99.90;;;;;;5092453;28;20953;-70
2021/06/03 07:04:14;;;;;;;3.93;3.50;;;19.10;99.90;;;;;;5092621;28;20543;-69
2021/06/03 07:06:40;;;;;;;3.83;3.53;;;19.20;99.90;;;;;;5092214;28;20466;-71
2021/06/03 07:09:06;;;;;;;3.83;3.50;;;19.30;99.90;;;;;;5075538;28;20963;-70
2021/06/03 07:11:34;;;;;;;5.07;3.70;;;19.40;99.90;;;;;;5052618;28;20462;-70
2021/06/03 07:14:01;;;;;;;3.63;3.30;;;19.40;99.90;;;;;;5053449;28;20483;-70
2021/06/03 07:16:27;;;;;;;4.50;3.50;;;19.40;99.90;;;;;;5053175;28;20473;-69
2021/06/03 07:18:53;;;;;;;4.17;3.77;;;19.40;99.90;;;;;;5053143;28;20982;-71
2021/06/03 07:21:21;;;;;;;4.20;3.73;;;19.50;99.90;;;;;;5053185;28;20459;-70
2021/06/03 07:23:48;;;;;;;3.80;3.50;;;19.60;99.90;;;;;;5052473;28;20495;-69
2021/06/03 07:26:14;;;;;;;3.60;3.30;;;19.70;99.90;;;;;;5052368;28;20467;-70
2021/06/03 07:28:41;;;;;;;4.27;3.70;;;19.80;99.90;;;;;;5051670;28;20983;-71
2021/06/03 07:31:08;;;;;;;4.60;3.90;;;19.90;99.90;;;;;;5052339;28;20490;-71
2021/06/03 07:33:34;;;;;;;5.10;3.50;;;20.00;99.90;;;;;;5051510;28;20495;-71
2021/06/03 07:36:00;;;;;;;3.57;3.27;;;20.10;99.90;;;;;;5054030;28;20459;-70
2021/06/03 07:38:29;;;;;;;3.93;3.53;;;20.20;99.90;;;;;;5053875;28;20462;-70
2021/06/03 07:40:55;;;;;;;3.33;3.03;;;20.20;99.90;;;;;;5051824;28;20967;-72
2021/06/03 07:43:22;;;;;;;3.47;3.17;;;20.30;99.90;;;;;;5051370;28;21027;-72
2021/06/03 07:45:48;;;;;;;3.27;3.07;;;20.30;99.90;;;;;;5051285;28;20475;-72
2021/06/03 07:48:14;;;;;;;3.33;3.03;;;20.50;99.90;;;;;;5051314;28;20581;-71
2021/06/03 07:50:41;;;;;;;4.93;2.53;;;20.70;99.90;;;;;;5051210;28;20460;-71
2021/06/03 07:53:08;;;;;;;2.63;2.43;;;20.80;99.90;;;;;;5051397;28;20468;-72
2021/06/03 07:55:36;;;;;;;3.57;3.27;;;20.90;99.90;;;;;;5050958;28;20463;-72
2021/06/03 07:58:06;;;;;;;2.80;2.60;;;21.10;99.90;;;;;;5051044;28;20475;-71
2021/06/03 08:00:35;;;;;;;3.20;2.90;;;21.30;99.90;;;;;;5050642;28;20850;-70
2021/06/03 08:03:01;;;;;;;2.60;2.33;;;21.40;99.90;;;;;;5051177;28;20519;-71
2021/06/03 08:05:28;;;;;;;3.53;2.40;;;21.50;99.90;;;;;;5051037;28;21077;-70
2021/06/03 08:07:55;;;;;;;4.43;2.93;;;21.60;99.90;;;;;;5050796;28;20456;-70
2021/06/03 08:10:24;;;;;;;2.50;2.30;;;21.60;99.90;;;;;;5051207;28;20494;-70
2021/06/03 08:12:52;;;;;;;3.47;2.87;;;21.70;99.90;;;;;;5050957;28;20463;-70
2021/06/03 08:15:19;;;;;;;6.43;3.03;;;21.90;99.90;;;;;;5050971;28;20475;-70
2021/06/03 08:17:45;;;;;;;4.37;2.67;;;22.00;99.90;;;;;;5051161;28;20874;-71
2021/06/03 08:20:14;;;;;;;2.90;2.70;;;22.10;99.90;;;;;;5050954;28;20484;-71
2021/06/03 08:22:41;;;;;;;3.33;2.67;;;22.20;99.90;;;;;;5050588;28;20541;-71
2021/06/03 08:25:09;;;;;;;2.50;2.30;;;22.30;99.90;;;;;;5050663;28;20482;-71
2021/06/03 08:27:35;;;;;;;2.83;2.53;;;22.40;99.90;;;;;;5050571;28;20468;-71
2021/06/03 08:30:04;;;;;;;3.10;2.70;;;22.60;99.90;;;;;;5062586;28;20993;-71
2021/06/03 08:32:31;;;;;;;3.77;2.70;;;22.60;99.90;;;;;;5068899;28;20947;-72
2021/06/03 08:34:57;;;;;;;2.80;2.30;;;22.70;99.90;;;;;;5068836;28;20490;-73
2021/06/03 08:37:24;;;;;;;3.00;2.53;;;22.80;99.90;;;;;;5068814;28;20550;-73
2021/06/03 08:39:51;;;;;;;3.40;2.40;;;22.80;99.90;;;;;;5068558;28;20462;-73
2021/06/03 08:42:17;;;;;;;5.30;2.70;;;22.70;99.90;;;;;;5069050;28;20463;-72
2021/06/03 08:44:45;;;;;;;2.87;2.37;;;22.50;99.90;;;;;;5068798;28;20998;-71
2021/06/03 08:47:12;;;;;;;2.93;2.40;;;22.40;99.90;;;;;;5069037;28;20471;-72
2021/06/03 08:49:39;;;;;;;2.50;2.30;;;22.30;99.90;;;;;;5068516;28;21025;-72
2021/06/03 08:52:07;;;;;;;2.53;2.33;;;22.20;99.90;;;;;;5068965;28;20454;-71
2021/06/03 08:54:35;;;;;;;3.10;2.63;;;22.30;99.90;;;;;;5068679;28;20479;-72
2021/06/03 08:57:01;;;;;;;3.60;2.57;;;22.20;99.90;;;;;;5068621;28;20857;-71
2021/06/03 08:59:28;;;;;;;2.60;2.37;;;22.10;99.90;;;;;;5067894;28;20470;-72
2021/06/03 09:01:54;;;;;;;3.47;3.17;;;22.10;99.90;;;;;;5068641;28;20462;-71
2021/06/03 09:04:22;;;;;;;4.10;2.80;;;22.00;99.90;;;;;;5068558;28;20569;-73
2021/06/03 09:06:48;;;;;;;3.73;2.87;;;22.00;99.90;;;;;;5068480;28;20477;-73
2021/06/03 09:09:25;;;;;;;3.80;2.40;;;22.00;99.90;;;;;;5068409;28;20458;-73
2021/06/03 09:12:09;;;;;;;2.97;2.77;;;22.20;99.90;;;;;;5068703;28;20549;-73
2021/06/03 09:14:36;;;;;;;2.97;2.77;;;22.40;99.90;;;;;;5068387;28;20470;-73
2021/06/03 09:17:03;;;;;;;3.10;2.50;;;22.60;99.90;;;;;;5068779;28;20542;-71
2021/06/03 09:19:30;;;;;;;2.67;2.47;;;22.70;99.90;;;;;;5067982;28;21140;-71
2021/06/03 09:21:58;;;;;;;3.40;2.20;;;22.70;99.90;;;;;;5068114;28;20465;-71
2021/06/03 09:24:30;;;;;;;3.33;2.67;;;22.70;99.90;;;;;;5067944;28;20501;-71
2021/06/03 09:26:57;;;;;;;3.63;2.70;;;22.90;99.90;;;;;;5068206;28;20470;-73
2021/06/03 09:29:27;;;;;;;2.40;2.20;;;23.10;99.90;;;;;;5067392;28;20548;-73
2021/06/03 09:32:01;;;;;;;3.27;2.27;;;23.00;99.90;;;;;;5068189;28;20485;-73
2021/06/03 09:34:27;;;;;;;2.97;2.67;;;23.10;99.90;;;;;;5068141;28;20505;-73
2021/06/03 09:36:58;;;;;;;2.63;2.43;;;23.30;99.90;;;;;;5068277;28;20547;-72
2021/06/03 09:39:26;;;;;;;2.93;2.70;;;23.50;99.90;;;;;;5067731;28;20462;-72
2021/06/03 09:41:57;;;;;;;2.60;2.40;;;23.80;99.90;;;;;;5068103;28;20511;-73
2021/06/03 09:44:27;;;;;;;2.50;2.30;;;23.90;99.90;;;;;;5067699;28;20503;-71
2021/06/03 09:46:56;;;;;;;3.00;2.40;;;24.00;99.90;;;;;;5067856;28;20468;-71
2021/06/03 09:49:25;;;;;;;2.60;2.40;;;23.80;99.90;;;;;;5067525;28;20468;-71
2021/06/03 09:51:53;;;;;;;2.80;2.60;;;23.80;99.90;;;;;;5067850;28;20458;-71
2021/06/03 09:54:22;;;;;;;3.40;2.60;;;23.80;99.90;;;;;;5067727;28;20569;-71
2021/06/03 09:56:52;;;;;;;2.40;2.20;;;23.90;99.90;;;;;;5067692;28;20458;-71
2021/06/03 09:59:21;;;;;;;2.30;2.10;;;24.10;99.90;;;;;;5067266;28;20451;-71
2021/06/03 10:01:50;;;;;;;2.20;2.10;;;24.20;99.90;;;;;;5067992;28;20474;-71
2021/06/03 10:04:19;;;;;;;3.40;2.57;;;24.30;99.90;;;;;;5067956;28;20490;-71
2021/06/03 10:07:00;;;;;;;2.60;2.40;;;24.40;99.90;;;;;;5067513;28;21092;-70
2021/06/03 10:10:01;;;;;;;3.03;2.73;;;24.50;99.90;;;;;;5068644;28;20463;-71
2021/06/03 10:12:36;;;;;;;2.87;2.67;;;24.60;99.90;;;;;;5070931;28;20464;-71
2021/06/03 10:15:11;;;;;;;3.23;2.50;;;24.70;99.90;;;;;;5071061;28;20903;-70
2021/06/03 10:17:39;;;;;;;2.83;2.60;;;24.80;99.90;;;;;;5071114;28;20531;-71
2021/06/03 10:20:08;;;;;;;3.00;2.30;;;25.00;99.90;;;;;;5070841;28;20565;-71
2021/06/03 10:22:36;;;;;;;2.73;2.40;;;25.10;99.50;;;;;;5070921;28;20524;-70
2021/06/03 10:25:12;;;;;;;2.50;2.30;;;25.20;99.90;;;;;;5071024;28;20497;-71
2021/06/03 10:27:41;;;;;;;3.40;3.10;;;25.30;99.90;;;;;;5070876;28;20552;-71
2021/06/03 10:30:15;;;;;;;4.03;3.03;;;25.40;99.90;;;;;;5071205;28;20545;-71
2021/06/03 10:32:42;;;;;;;2.73;2.50;;;25.60;99.90;;;;;;5071217;28;20462;-70
2021/06/03 10:35:13;;;;;;;2.60;2.40;;;25.80;99.90;;;;;;5070727;28;20483;-71
2021/06/03 10:37:40;;;;;;;2.87;2.30;;;25.80;99.90;;;;;;5070658;28;20542;-70
2021/06/03 10:40:12;;;;;;;2.53;2.33;;;26.00;99.90;;;;;;5070751;28;20455;-71
2021/06/03 10:42:40;;;;;;;2.50;2.30;;;26.00;98.40;;;;;;5070642;28;20549;-71
2021/06/03 10:45:08;;;;;;;4.40;2.40;;;25.70;97.60;;;;;;5071392;28;20478;-71
2021/06/03 10:47:35;;;;;;;2.70;2.40;;;25.40;97.70;;;;;;5070674;28;20977;-71
2021/06/03 10:50:04;;;;;;;2.40;2.20;;;25.20;98.60;;;;;;5070209;28;20519;-71
2021/06/03 10:52:31;;;;;;;2.90;2.30;;;25.30;98.20;;;;;;5070353;28;20492;-71
2021/06/03 10:54:59;;;;;;;2.23;2.03;;;25.60;99.90;;;;;;5070596;28;20517;-71
2021/06/03 10:57:48;;;;;;;2.70;2.43;;;25.80;98.10;;;;;;5070351;28;20899;-71
2021/06/03 11:00:33;;;;;;;2.77;2.50;;;25.80;98.10;;;;;;5070737;28;20966;-71
2021/06/03 11:03:01;;;;;;;3.27;2.40;;;25.60;99.10;;;;;;5070742;28;20487;-71
2021/06/03 11:05:31;;;;;;;2.43;2.23;;;25.60;98.80;;;;;;5070240;28;20458;-71
2021/06/03 11:08:12;;;;;;;2.60;2.40;;;25.60;99.00;;;;;;5070109;28;20461;-73
2021/06/03 11:10:38;;;;;;;2.60;2.40;;;25.60;98.10;;;;;;5069569;28;20532;-72
2021/06/03 11:13:14;;;;;;;2.27;2.03;;;25.80;99.80;;;;;;5070235;28;20495;-72
2021/06/03 11:16:05;;;;;;;4.15;2.40;;;26.00;98.20;;;;;;5069584;28;20465;-71
2021/06/03 11:19:07;;;;;;;2.80;2.50;;;26.30;99.90;;;;;;5054903;28;20458;-69
2021/06/03 11:21:53;;;;;;;2.73;2.40;;;26.40;99.10;;;;;;5069553;28;20458;-71
2021/06/03 11:24:55;;;;;;;2.60;2.27;;;26.30;99.50;;;;;;5069457;28;20483;-71
2021/06/03 11:27:35;;;;;;;2.83;2.60;;;26.50;99.90;;;;;;5069302;28;20465;-70
2021/06/03 11:30:10;;;;;;;2.63;2.43;;;26.70;99.90;;;;;;5069658;28;20462;-70
2021/06/03 11:32:42;;;;;;;3.00;2.80;;;26.80;99.60;;;;;;5069534;28;20943;-70
2021/06/03 11:35:11;;;;;;;2.70;2.50;;;27.10;99.90;;;;;;5069243;28;20547;-70
2021/06/03 11:37:49;;;;;;;2.40;2.20;;;27.30;99.80;;;;;;5060118;28;20605;-70
2021/06/03 11:40:22;;;;;;;2.73;2.33;;;27.20;98.90;;;;;;5058192;28;20467;-70
2021/06/03 11:43:04;;;;;;;2.97;2.53;;;27.10;99.50;;;;;;5058529;28;20555;-70
2021/06/03 11:45:33;;;;;;;2.50;2.30;;;27.30;98.90;;;;;;5060044;28;20506;-70
2021/06/03 11:48:10;;;;;;;2.57;2.37;;;27.20;97.90;;;;;;5059773;28;20456;-70
2021/06/03 11:50:52;;;;;;;3.07;2.77;;;27.10;98.80;;;;;;5059718;28;20491;-70
2021/06/03 11:53:21;;;;;;;2.53;2.33;;;26.80;99.00;;;;;;5063645;28;20454;-70
2021/06/03 11:55:50;;;;;;;3.13;2.40;;;26.50;99.20;;;;;;5068871;28;20816;-70
2021/06/03 11:58:30;;;;;;;3.67;2.60;;;26.20;98.80;;;;;;5068258;28;20468;-70
2021/06/03 12:01:01;;;;;;;2.70;2.50;;;25.90;99.50;;;;;;5087921;28;20461;-70
2021/06/03 12:03:30;;;;;;;2.80;2.60;;;25.90;99.50;;;;;;5088408;28;20527;-70
2021/06/03 12:05:58;;;;;;;3.17;2.87;;;25.90;99.90;;;;;;5088820;28;20469;-70
2021/06/03 12:08:36;;;;;;;2.70;2.50;;;25.80;99.90;;;;;;5088557;28;20469;-70
2021/06/03 12:11:05;;;;;;;2.53;2.33;;;25.80;99.90;;;;;;5089045;28;20704;-70
2021/06/03 12:13:31;;;;;;;3.87;2.47;;;26.10;99.90;;;;;;5089122;28;20492;-70
2021/06/03 12:15:59;;;;;;;2.73;2.53;;;26.50;99.90;;;;;;5089047;28;20993;-70
2021/06/03 12:18:32;;;;;;;3.13;2.77;;;26.80;99.90;;;;;;5079589;28;20460;-70
2021/06/03 12:20:59;;;;;;;3.23;2.93;;;27.00;99.60;;;;;;5048969;28;20467;-71
2021/06/03 12:23:25;;;;;;;5.07;2.60;;;26.90;99.50;;;;;;5048604;28;20487;-71
2021/06/03 12:25:51;;;;;;;2.50;2.30;;;26.60;99.90;;;;;;5048924;28;20536;-71
2021/06/03 12:28:18;;;;;;;2.63;2.43;;;26.50;99.90;;;;;;5048371;28;20966;-70
2021/06/03 12:30:44;;;;;;;4.37;2.80;;;26.40;99.90;;;;;;5048526;28;21424;-70
2021/06/03 12:33:14;;;;;;;2.60;2.40;;;26.10;99.00;;;;;;5047561;28;20959;-70
2021/06/03 12:35:43;;;;;;;2.87;2.67;;;25.70;99.90;;;;;;5048704;28;20460;-70
2021/06/03 12:38:10;;;;;;;2.93;2.63;;;25.40;99.70;;;;;;5048556;28;20856;-70
2021/06/03 12:40:38;;;;;;;2.53;2.33;;;25.10;99.90;;;;;;5048470;28;20466;-70
2021/06/03 12:43:07;;;;;;;3.20;2.90;;;25.00;99.90;;;;;;5047863;28;20483;-70
2021/06/03 12:45:37;;;;;;;4.90;2.73;;;24.80;99.90;;;;;;5048313;28;20471;-71
2021/06/03 12:48:04;;;;;;;4.77;3.00;;;24.70;99.90;;;;;;5048068;28;20551;-70
2021/06/03 12:50:37;;;;;;;2.73;2.53;;;24.50;99.90;;;;;;5048766;28;20460;-71
2021/06/03 12:53:08;;;;;;;3.30;3.00;;;24.50;99.90;;;;;;5048822;28;20537;-70
2021/06/03 12:55:36;;;;;;;3.07;2.80;;;24.40;99.90;;;;;;5048504;28;20463;-70
2021/06/03 12:58:06;;;;;;;3.47;2.50;;;24.30;99.90;;;;;;5048547;28;20542;-70